Terminal Aerodrome Forecast
Issued by NWS

Home | Current Version | Previous Version | Graphics & Text | Print | Product List | Glossary On
Versions: 1 2 3 4 5 6 7 8 9 10 11 12 13 14 15 16
000
FTUS45 KGGW 150522
TAFSDY
TAF
KSDY 150522Z 1506/1606 VRB05KT P6SM VCSH BKN090
     FM150800 VRB03KT P6SM BKN100
     FM151800 VRB05KT P6SM SCT170
     FM160200 05005KT P6SM SCT080=

USA.gov is the U.S. government's official web portal to all federal, state and local government web resources and services.